Terminal Aerodrome Forecast
Issued by NWS Charleston, WV

Current Version | Previous Version | Text Only | Print | Product List | Glossary Off
Versions: 1 2 3 4 5 6 7 8 9 10 11 12 13 14 15 16 17 18 19 20 21 22 23 24 25

000
FTUS41 KRLX 200200 AAB
TAFBKW
TAF AMD
KBKW 200256Z 2003/2024 01005KT P6SM OVC009
     FM201000 VRB03KT P6SM OVC015
     FM201200 VRB03KT 6SM -SN OVC015
     FM201400 VRB03KT 5SM -SN OVC015
     FM201600 28004KT P6SM -RASN OVC020
     FM201800 32006KT P6SM OVC020=

USA.gov is the U.S. government's official web portal to all federal, state and local government web resources and services.